A40 weather

Cape Simpson
Alaska, United States

Public forecast

Using degrees Fahrenheit for public forecast. Weather courtesy of forecast.io.

METAR (pilot weather report)

Closest report is Wiley Post Will Rogers Memorial Airport, 41.6 nm (77.1 km) WNW. Retrieved 2019/04/24 08:53 UTC (33 minutes ago):

PABR 240853Z AUTO 06018KT 10SM CLR M14/M17 A3035

TAF (pilot weather forecast)

Forecast is more than 12 hours old.

Closest forecast is Wiley Post Will Rogers Memorial Airport, 41.6 nm (77.1 km) WNW. Retrieved 2019/04/23 00:33 UTC (1 day ago):

TAF PABR 232330Z 2400/2424 05020KT P6SM SCT200 FM241400 09016KT P6SM SCT200